Time,TemperatureF,DewpointF,PressureIn,WindDirection,WindDirectionDegrees,WindSpeedMPH,WindSpeedGustMPH,Humidity,HourlyPrecipIn,Conditions,Clouds,dailyrainin,SoftwareType,DateUTC
2013-07-22 00:00:00,68.8,67.0,29.98,East,98,0.0,0.0,94,0.00,,---,0.00,VWS V14.01,2013-07-22 04:00:00,
2013-07-22 00:05:00,68.7,66.9,29.98,East,98,0.0,0.0,94,0.00,,---,0.00,VWS V14.01,2013-07-22 04:05:00,
2013-07-22 00:10:00,68.6,66.8,29.98,East,98,0.0,0.0,94,0.00,,---,0.00,VWS V14.01,2013-07-22 04:10:00,
2013-07-22 00:15:00,68.6,66.8,29.98,East,98,0.0,0.0,94,0.00,,---,0.00,VWS V14.01,2013-07-22 04:15:00,
2013-07-22 00:20:00,68.5,66.7,29.99,East,98,0.0,0.0,94,0.00,,---,0.00,VWS V14.01,2013-07-22 04:20:00,
2013-07-22 00:25:00,68.5,66.7,29.99,East,98,0.0,0.0,94,0.00,,---,0.00,VWS V14.01,2013-07-22 04:25:00,
2013-07-22 00:30:00,68.4,66.6,29.99,East,98,0.0,0.0,94,0.00,,---,0.00,VWS V14.01,2013-07-22 04:30:00,
2013-07-22 00:35:00,68.4,66.9,29.99,East,98,0.0,0.0,95,0.00,,---,0.00,VWS V14.01,2013-07-22 04:35:00,
2013-07-22 00:40:00,68.3,66.8,29.98,East,98,0.0,0.0,95,0.00,,---,0.00,VWS V14.01,2013-07-22 04:40:00,
2013-07-22 00:45:00,68.2,66.7,29.98,East,98,0.0,0.0,95,0.00,,---,0.00,VWS V14.01,2013-07-22 04:45:00,
2013-07-22 00:50:00,68.1,66.6,29.98,East,98,0.0,0.0,95,0.00,,---,0.00,VWS V14.01,2013-07-22 04:50:00,
2013-07-22 00:55:00,68.1,66.3,29.99,East,98,0.0,0.0,94,0.00,,---,0.00,VWS V14.01,2013-07-22 04:55:00,
2013-07-22 01:00:00,68.0,66.2,29.98,East,98,0.0,0.0,94,0.00,,---,0.00,VWS V14.01,2013-07-22 05:00:00,
2013-07-22 01:05:00,67.9,66.1,29.98,East,98,0.0,0.0,94,0.00,,---,0.00,VWS V14.01,2013-07-22 05:05:00,
2013-07-22 01:10:00,67.8,66.3,29.98,East,98,0.0,0.0,95,0.00,,---,0.00,VWS V14.01,2013-07-22 05:10:00,
2013-07-22 01:15:00,67.7,66.2,29.98,East,98,0.0,0.0,95,0.00,,---,0.00,VWS V14.01,2013-07-22 05:15:00,
2013-07-22 01:20:00,67.6,66.1,29.98,East,98,0.0,0.0,95,0.00,,---,0.00,VWS V14.01,2013-07-22 05:20:00,
2013-07-22 01:25:00,67.6,66.1,29.98,East,98,0.0,0.0,95,0.00,,---,0.00,VWS V14.01,2013-07-22 05:25:00,
2013-07-22 01:30:00,67.6,66.1,29.98,East,98,0.0,0.0,95,0.00,,---,0.00,VWS V14.01,2013-07-22 05:30:00,
2013-07-22 01:35:00,67.6,66.1,29.98,East,98,0.0,0.0,95,0.00,,---,0.00,VWS V14.01,2013-07-22 05:35:00,
2013-07-22 01:40:00,67.6,66.4,29.98,East,98,0.0,0.0,96,0.00,,---,0.00,VWS V14.01,2013-07-22 05:40:00,
2013-07-22 01:45:00,67.6,66.1,29.98,East,98,0.0,0.0,95,0.00,,---,0.00,VWS V14.01,2013-07-22 05:45:00,
2013-07-22 01:50:00,67.5,66.0,29.98,East,98,0.0,0.0,95,0.00,,---,0.00,VWS V14.01,2013-07-22 05:50:00,
2013-07-22 01:55:00,67.5,66.0,29.98,East,98,0.0,0.0,95,0.00,,---,0.00,VWS V14.01,2013-07-22 05:55:00,
2013-07-22 02:00:00,67.4,65.9,29.98,East,98,0.0,0.0,95,0.00,,---,0.00,VWS V14.01,2013-07-22 06:00:00,
2013-07-22 02:05:00,67.4,65.9,29.97,East,98,0.0,0.0,95,0.00,,---,0.00,VWS V14.01,2013-07-22 06:05:00,
2013-07-22 02:10:00,67.3,65.8,29.97,East,98,0.0,0.0,95,0.00,,---,0.00,VWS V14.01,2013-07-22 06:10:00,
2013-07-22 02:15:00,67.2,65.7,29.97,East,98,0.0,0.0,95,0.00,,---,0.00,VWS V14.01,2013-07-22 06:15:00,
2013-07-22 02:20:00,67.2,65.7,29.97,East,98,0.0,0.0,95,0.00,,---,0.00,VWS V14.01,2013-07-22 06:20:00,
2013-07-22 02:25:00,67.1,65.9,29.98,East,98,0.0,0.0,96,0.00,,---,0.00,VWS V14.01,2013-07-22 06:25:00,
2013-07-22 02:30:00,67.0,65.8,29.98,East,98,0.0,0.0,96,0.00,,---,0.00,VWS V14.01,2013-07-22 06:30:00,
2013-07-22 02:35:00,67.0,65.8,29.98,East,98,0.0,0.0,96,0.00,,---,0.00,VWS V14.01,2013-07-22 06:35:00,
2013-07-22 02:40:00,67.0,65.8,29.98,East,98,0.0,0.0,96,0.00,,---,0.00,VWS V14.01,2013-07-22 06:40:00,
2013-07-22 02:45:00,67.0,65.8,29.98,East,98,0.0,0.0,96,0.00,,---,0.00,VWS V14.01,2013-07-22 06:45:00,
2013-07-22 02:50:00,67.2,66.0,29.97,East,98,0.0,0.0,96,0.00,,---,0.00,VWS V14.01,2013-07-22 06:50:00,
2013-07-22 02:55:00,67.2,66.0,29.97,East,98,0.0,0.0,96,0.00,,---,0.00,VWS V14.01,2013-07-22 06:55:00,
2013-07-22 03:00:00,67.2,66.0,29.97,East,98,0.0,0.0,96,0.00,,---,0.00,VWS V14.01,2013-07-22 07:00:00,
2013-07-22 03:05:00,67.1,65.9,29.97,East,98,0.0,0.0,96,0.00,,---,0.00,VWS V14.01,2013-07-22 07:05:00,
2013-07-22 03:10:00,67.1,65.9,29.97,East,98,0.0,0.0,96,0.00,,---,0.00,VWS V14.01,2013-07-22 07:10:00,
2013-07-22 03:15:00,66.9,65.7,29.97,East,98,0.0,0.0,96,0.00,,---,0.00,VWS V14.01,2013-07-22 07:15:00,
2013-07-22 03:20:00,66.7,65.2,29.98,East,98,0.0,0.0,95,0.00,,---,0.00,VWS V14.01,2013-07-22 07:20:00,
2013-07-22 03:25:00,66.6,65.4,29.98,East,98,0.0,0.0,96,0.00,,---,0.00,VWS V14.01,2013-07-22 07:25:00,
2013-07-22 03:30:00,66.5,65.3,29.98,East,98,0.0,0.0,96,0.00,,---,0.00,VWS V14.01,2013-07-22 07:30:00,
2013-07-22 03:35:00,66.5,65.3,29.98,East,98,0.0,0.0,96,0.00,,---,0.00,VWS V14.01,2013-07-22 07:35:00,
2013-07-22 03:40:00,66.5,65.3,29.98,East,98,0.0,0.0,96,0.00,,---,0.00,VWS V14.01,2013-07-22 07:40:00,
2013-07-22 03:45:00,66.4,65.2,29.97,East,98,0.0,0.0,96,0.00,,---,0.00,VWS V14.01,2013-07-22 07:45:00,
2013-07-22 03:50:00,66.3,65.1,29.97,East,98,0.0,0.0,96,0.00,,---,0.00,VWS V14.01,2013-07-22 07:50:00,
2013-07-22 03:55:00,66.2,65.0,29.97,East,98,0.0,0.0,96,0.00,,---,0.00,VWS V14.01,2013-07-22 07:55:00,
2013-07-22 04:00:00,66.1,64.9,29.97,East,98,0.0,0.0,96,0.00,,---,0.00,VWS V14.01,2013-07-22 08:00:00,
2013-07-22 04:05:00,66.1,64.9,29.97,East,98,0.0,0.0,96,0.00,,---,0.00,VWS V14.01,2013-07-22 08:05:00,
2013-07-22 04:10:00,66.0,64.8,29.97,East,98,0.0,0.0,96,0.00,,---,0.00,VWS V14.01,2013-07-22 08:10:00,
2013-07-22 04:15:00,65.9,64.7,29.97,East,98,0.0,0.0,96,0.00,,---,0.00,VWS V14.01,2013-07-22 08:15:00,
2013-07-22 04:20:00,65.8,64.6,29.97,East,98,0.0,0.0,96,0.00,,---,0.00,VWS V14.01,2013-07-22 08:20:00,
2013-07-22 04:25:00,65.7,64.5,29.97,East,98,0.0,0.0,96,0.00,,---,0.00,VWS V14.01,2013-07-22 08:25:00,
2013-07-22 04:30:00,65.7,64.5,29.98,East,98,0.0,0.0,96,0.00,,---,0.00,VWS V14.01,2013-07-22 08:30:00,
2013-07-22 04:35:00,65.7,64.5,29.98,East,98,0.0,0.0,96,0.00,,---,0.00,VWS V14.01,2013-07-22 08:35:00,
2013-07-22 04:40:00,65.8,64.9,29.98,East,98,0.0,0.0,97,0.00,,---,0.00,VWS V14.01,2013-07-22 08:40:00,
2013-07-22 04:45:00,65.8,64.9,29.98,East,98,0.0,0.0,97,0.00,,---,0.00,VWS V14.01,2013-07-22 08:45:00,
2013-07-22 04:50:00,65.7,64.5,29.98,East,98,0.0,0.0,96,0.00,,---,0.00,VWS V14.01,2013-07-22 08:50:00,
2013-07-22 04:55:00,65.6,64.4,29.98,East,98,0.0,0.0,96,0.00,,---,0.00,VWS V14.01,2013-07-22 08:55:00,
2013-07-22 05:00:00,65.7,64.8,29.98,East,98,0.0,0.0,97,0.00,,---,0.00,VWS V14.01,2013-07-22 09:00:00,
2013-07-22 05:05:00,65.8,64.9,29.98,East,98,0.0,0.0,97,0.00,,---,0.00,VWS V14.01,2013-07-22 09:05:00,
2013-07-22 05:10:00,65.7,64.8,29.99,East,98,0.0,0.0,97,0.00,,---,0.00,VWS V14.01,2013-07-22 09:10:00,
2013-07-22 05:15:00,65.6,64.4,29.99,East,98,0.0,0.0,96,0.00,,---,0.00,VWS V14.01,2013-07-22 09:15:00,
2013-07-22 05:20:00,65.5,64.3,29.99,East,98,0.0,0.0,96,0.00,,---,0.00,VWS V14.01,2013-07-22 09:20:00,
2013-07-22 05:25:00,65.5,64.3,29.99,East,98,0.0,0.0,96,0.00,,---,0.00,VWS V14.01,2013-07-22 09:25:00,
2013-07-22 05:30:00,65.4,64.2,29.99,East,98,0.0,0.0,96,0.00,,---,0.00,VWS V14.01,2013-07-22 09:30:00,
2013-07-22 05:35:00,65.4,64.2,29.99,East,98,0.0,0.0,96,0.00,,---,0.00,VWS V14.01,2013-07-22 09:35:00,
2013-07-22 05:40:00,65.3,64.4,29.99,East,98,0.0,0.0,97,0.00,,---,0.00,VWS V14.01,2013-07-22 09:40:00,
2013-07-22 05:45:00,65.3,64.4,29.99,East,98,0.0,0.0,97,0.00,,---,0.00,VWS V14.01,2013-07-22 09:45:00,
2013-07-22 05:50:00,65.2,64.3,29.99,East,98,0.0,0.0,97,0.00,,---,0.00,VWS V14.01,2013-07-22 09:50:00,
2013-07-22 05:55:00,65.2,64.3,29.99,East,98,0.0,0.0,97,0.00,,---,0.00,VWS V14.01,2013-07-22 09:55:00,
2013-07-22 06:00:00,65.2,64.3,29.99,East,98,0.0,0.0,97,0.00,,---,0.00,VWS V14.01,2013-07-22 10:00:00,
2013-07-22 06:05:00,65.1,64.2,29.99,East,98,0.0,0.0,97,0.00,,---,0.00,VWS V14.01,2013-07-22 10:05:00,
2013-07-22 06:10:00,65.2,64.3,29.99,East,98,0.0,0.0,97,0.00,,---,0.00,VWS V14.01,2013-07-22 10:10:00,
2013-07-22 06:15:00,65.4,64.5,29.99,East,98,0.0,0.0,97,0.00,,---,0.00,VWS V14.01,2013-07-22 10:15:00,
2013-07-22 06:20:00,65.5,64.6,29.99,East,98,0.0,0.0,97,0.00,,---,0.00,VWS V14.01,2013-07-22 10:20:00,
2013-07-22 06:25:00,65.9,65.0,29.99,East,98,0.0,0.0,97,0.00,,---,0.00,VWS V14.01,2013-07-22 10:25:00,
2013-07-22 06:30:00,66.1,65.2,30.00,East,98,0.0,0.0,97,0.00,,---,0.00,VWS V14.01,2013-07-22 10:30:00,
2013-07-22 06:35:00,66.2,65.3,30.00,East,98,0.0,0.0,97,0.00,,---,0.00,VWS V14.01,2013-07-22 10:35:00,
2013-07-22 06:40:00,66.3,65.4,29.99,East,98,0.0,0.0,97,0.00,,---,0.00,VWS V14.01,2013-07-22 10:40:00,
2013-07-22 06:45:00,66.5,65.6,30.00,East,98,0.0,0.0,97,0.00,,---,0.00,VWS V14.01,2013-07-22 10:45:00,
2013-07-22 06:50:00,66.7,65.8,30.00,East,98,0.0,1.0,97,0.00,,---,0.00,VWS V14.01,2013-07-22 10:50:00,
2013-07-22 06:55:00,66.8,65.9,29.99,East,98,0.0,1.0,97,0.00,,---,0.00,VWS V14.01,2013-07-22 10:55:00,
2013-07-22 07:00:00,67.0,66.1,29.99,East,98,0.0,1.0,97,0.00,,---,0.00,VWS V14.01,2013-07-22 11:00:00,
2013-07-22 07:05:00,67.2,66.3,29.99,East,98,0.0,0.0,97,0.00,,---,0.00,VWS V14.01,2013-07-22 11:05:00,
2013-07-22 07:10:00,67.4,66.5,29.99,East,98,0.0,0.0,97,0.00,,---,0.00,VWS V14.01,2013-07-22 11:10:00,
2013-07-22 07:15:00,67.6,66.7,29.99,NNW,329,0.0,1.0,97,0.00,,---,0.00,VWS V14.01,2013-07-22 11:15:00,
2013-07-22 07:20:00,67.8,66.9,29.99,NNW,333,0.0,2.0,97,0.00,,---,0.00,VWS V14.01,2013-07-22 11:20:00,
2013-07-22 07:25:00,68.1,67.2,29.99,NNW,333,0.0,0.0,97,0.00,,---,0.00,VWS V14.01,2013-07-22 11:25:00,
2013-07-22 07:30:00,68.3,67.4,30.00,NNE,12,1.0,3.0,97,0.00,,---,0.00,VWS V14.01,2013-07-22 11:30:00,
2013-07-22 07:35:00,68.4,67.5,30.00,NNE,12,0.0,2.0,97,0.00,,---,0.00,VWS V14.01,2013-07-22 11:35:00,
2013-07-22 07:40:00,68.6,67.4,30.00,North,11,0.0,2.0,96,0.00,,---,0.00,VWS V14.01,2013-07-22 11:40:00,
2013-07-22 07:45:00,68.7,67.2,29.99,NNE,30,0.0,4.0,95,0.00,,---,0.00,VWS V14.01,2013-07-22 11:45:00,
2013-07-22 07:50:00,69.0,67.8,29.99,North,8,1.0,2.0,96,0.00,,---,0.00,VWS V14.01,2013-07-22 11:50:00,
2013-07-22 07:55:00,69.3,67.8,30.00,North,8,2.0,2.0,95,0.00,,---,0.00,VWS V14.01,2013-07-22 11:55:00,
2013-07-22 08:00:00,69.4,67.9,29.99,North,8,0.0,2.0,95,0.00,,---,0.00,VWS V14.01,2013-07-22 12:00:00,
2013-07-22 08:05:00,69.6,68.1,29.99,North,8,1.0,1.0,95,0.00,,---,0.00,VWS V14.01,2013-07-22 12:05:00,
2013-07-22 08:10:00,69.9,68.1,30.00,SSE,156,0.0,2.0,94,0.00,,---,0.00,VWS V14.01,2013-07-22 12:10:00,
2013-07-22 08:15:00,70.1,68.3,30.00,East,92,0.0,2.0,94,0.00,,---,0.00,VWS V14.01,2013-07-22 12:15:00,
2013-07-22 08:20:00,70.3,68.2,30.00,East,92,1.0,1.0,93,0.00,,---,0.00,VWS V14.01,2013-07-22 12:20:00,
2013-07-22 08:25:00,70.4,68.0,30.00,East,92,0.0,1.0,92,0.00,,---,0.00,VWS V14.01,2013-07-22 12:25:00,
2013-07-22 08:30:00,70.6,68.2,30.00,East,93,0.0,2.0,92,0.00,,---,0.00,VWS V14.01,2013-07-22 12:30:00,
2013-07-22 08:35:00,70.9,68.5,30.00,East,93,0.0,2.0,92,0.00,,---,0.00,VWS V14.01,2013-07-22 12:35:00,
2013-07-22 08:40:00,71.4,69.0,30.00,NE,45,2.0,3.0,92,0.00,,---,0.00,VWS V14.01,2013-07-22 12:40:00,
2013-07-22 08:45:00,72.1,69.3,30.00,NE,40,2.0,3.0,91,0.00,,---,0.00,VWS V14.01,2013-07-22 12:45:00,
2013-07-22 08:50:00,72.5,68.8,30.00,SE,131,0.0,3.0,88,0.00,,---,0.00,VWS V14.01,2013-07-22 12:50:00,
2013-07-22 08:55:00,73.0,69.6,30.00,East,94,1.0,2.0,89,0.00,,---,0.00,VWS V14.01,2013-07-22 12:55:00,
2013-07-22 09:00:00,73.3,68.9,30.01,ESE,117,0.0,3.0,86,0.00,,---,0.00,VWS V14.01,2013-07-22 13:00:00,
2013-07-22 09:05:00,73.6,68.8,30.01,ENE,77,0.0,2.0,85,0.00,,---,0.00,VWS V14.01,2013-07-22 13:05:00,
2013-07-22 09:10:00,73.8,69.0,30.01,ENE,77,0.0,1.0,85,0.00,,---,0.00,VWS V14.01,2013-07-22 13:10:00,
2013-07-22 09:15:00,74.2,69.4,30.01,ENE,77,0.0,2.0,85,0.00,,---,0.00,VWS V14.01,2013-07-22 13:15:00,
2013-07-22 09:20:00,74.8,70.0,30.01,North,359,0.0,3.0,85,0.00,,---,0.00,VWS V14.01,2013-07-22 13:20:00,
2013-07-22 09:25:00,75.1,69.6,30.01,North,358,0.0,3.0,83,0.00,,---,0.00,VWS V14.01,2013-07-22 13:25:00,
2013-07-22 09:30:00,75.3,69.8,30.01,SSE,158,0.0,3.0,83,0.00,,---,0.00,VWS V14.01,2013-07-22 13:30:00,
2013-07-22 09:35:00,75.2,69.7,30.00,WSW,248,1.0,3.0,83,0.00,,---,0.00,VWS V14.01,2013-07-22 13:35:00,
2013-07-22 09:40:00,75.1,69.9,30.00,West,271,0.0,4.0,84,0.00,,---,0.00,VWS V14.01,2013-07-22 13:40:00,
2013-07-22 09:45:00,75.2,70.0,30.00,West,271,1.0,2.0,84,0.00,,---,0.00,VWS V14.01,2013-07-22 13:45:00,
2013-07-22 09:50:00,75.5,70.0,30.00,NNE,25,3.0,4.0,83,0.00,,---,0.00,VWS V14.01,2013-07-22 13:50:00,
2013-07-22 09:55:00,75.6,70.4,30.00,North,360,0.0,3.0,84,0.00,,---,0.00,VWS V14.01,2013-07-22 13:55:00,
2013-07-22 10:00:00,75.9,70.4,30.00,NNE,30,0.0,3.0,83,0.00,,---,0.00,VWS V14.01,2013-07-22 14:00:00,
2013-07-22 10:05:00,76.3,70.8,30.01,East,85,1.0,2.0,83,0.00,,---,0.00,VWS V14.01,2013-07-22 14:05:00,
2013-07-22 10:10:00,76.7,70.8,30.01,ENE,59,1.0,3.0,82,0.00,,---,0.00,VWS V14.01,2013-07-22 14:10:00,
2013-07-22 10:15:00,77.0,71.1,30.01,ENE,59,0.0,1.0,82,0.00,,---,0.00,VWS V14.01,2013-07-22 14:15:00,
2013-07-22 10:20:00,77.2,70.9,30.01,ENE,59,0.0,1.0,81,0.00,,---,0.00,VWS V14.01,2013-07-22 14:20:00,
2013-07-22 10:25:00,76.9,71.0,30.01,NNE,30,0.0,4.0,82,0.00,,---,0.00,VWS V14.01,2013-07-22 14:25:00,
2013-07-22 10:30:00,76.7,70.4,30.01,NNE,30,0.0,2.0,81,0.00,,---,0.00,VWS V14.01,2013-07-22 14:30:00,
2013-07-22 10:35:00,76.3,70.4,30.01,NNE,25,0.0,3.0,82,0.00,,---,0.00,VWS V14.01,2013-07-22 14:35:00,
2013-07-22 10:40:00,76.1,70.2,30.01,NNE,30,0.0,3.0,82,0.00,,---,0.00,VWS V14.01,2013-07-22 14:40:00,
2013-07-22 10:45:00,76.0,70.5,30.01,NNE,12,0.0,2.0,83,0.00,,---,0.00,VWS V14.01,2013-07-22 14:45:00,
2013-07-22 10:50:00,76.1,70.6,30.01,WNW,290,0.0,1.0,83,0.00,,---,0.00,VWS V14.01,2013-07-22 14:50:00,
2013-07-22 10:55:00,76.4,71.2,30.01,NNW,342,0.0,2.0,84,0.00,,---,0.00,VWS V14.01,2013-07-22 14:55:00,
2013-07-22 11:00:00,76.9,70.3,30.01,NE,46,0.0,2.0,80,0.00,,---,0.00,VWS V14.01,2013-07-22 15:00:00,
2013-07-22 11:05:00,77.5,70.5,30.01,SSE,148,0.0,2.0,79,0.00,,---,0.00,VWS V14.01,2013-07-22 15:05:00,
2013-07-22 11:10:00,78.2,70.0,30.01,ENE,75,1.0,3.0,76,0.00,,---,0.00,VWS V14.01,2013-07-22 15:10:00,
2013-07-22 11:15:00,78.8,69.8,30.01,East,80,0.0,1.0,74,0.00,,---,0.00,VWS V14.01,2013-07-22 15:15:00,
2013-07-22 11:20:00,79.6,70.6,30.01,ENE,78,0.0,2.0,74,0.00,,---,0.00,VWS V14.01,2013-07-22 15:20:00,
2013-07-22 11:25:00,80.1,71.1,30.00,SSE,158,0.0,3.0,74,0.00,,---,0.00,VWS V14.01,2013-07-22 15:25:00,
2013-07-22 11:30:00,80.9,70.2,30.00,NE,40,0.0,2.0,70,0.00,,---,0.00,VWS V14.01,2013-07-22 15:30:00,
2013-07-22 11:35:00,81.1,70.4,30.00,ENE,57,0.0,4.0,70,0.00,,---,0.00,VWS V14.01,2013-07-22 15:35:00,
2013-07-22 11:40:00,81.1,70.4,30.00,NNW,336,0.0,3.0,70,0.00,,---,0.00,VWS V14.01,2013-07-22 15:40:00,
2013-07-22 11:45:00,81.2,70.9,30.00,South,176,0.0,2.0,71,0.00,,---,0.00,VWS V14.01,2013-07-22 15:45:00,
2013-07-22 11:50:00,81.2,70.9,29.99,South,190,1.0,2.0,71,0.00,,---,0.00,VWS V14.01,2013-07-22 15:50:00,
2013-07-22 11:55:00,81.2,71.3,30.00,SE,125,1.0,2.0,72,0.00,,---,0.00,VWS V14.01,2013-07-22 15:55:00,
2013-07-22 12:00:00,80.9,69.8,29.99,SE,125,0.0,1.0,69,0.00,,---,0.00,VWS V14.01,2013-07-22 16:00:00,
2013-07-22 12:05:00,80.7,71.2,29.99,NE,52,0.0,1.0,73,0.00,,---,0.00,VWS V14.01,2013-07-22 16:05:00,
2013-07-22 12:10:00,81.3,70.6,29.99,North,11,0.0,3.0,70,0.00,,---,0.00,VWS V14.01,2013-07-22 16:10:00,
2013-07-22 12:15:00,81.6,70.9,29.99,East,93,1.0,1.0,70,0.00,,---,0.00,VWS V14.01,2013-07-22 16:15:00,
2013-07-22 12:20:00,81.9,71.2,29.99,East,84,1.0,2.0,70,0.00,,---,0.00,VWS V14.01,2013-07-22 16:20:00,
2013-07-22 12:25:00,81.9,70.7,29.98,NE,40,0.0,4.0,69,0.00,,---,0.00,VWS V14.01,2013-07-22 16:25:00,
2013-07-22 12:30:00,81.9,71.2,29.98,SE,131,1.0,2.0,70,0.00,,---,0.00,VWS V14.01,2013-07-22 16:30:00,
2013-07-22 12:35:00,81.8,70.2,29.98,SSE,149,2.0,2.0,68,0.00,,---,0.00,VWS V14.01,2013-07-22 16:35:00,
2013-07-22 12:40:00,81.8,70.6,29.98,West,260,0.0,2.0,69,0.00,,---,0.00,VWS V14.01,2013-07-22 16:40:00,
2013-07-22 12:45:00,82.1,70.5,29.98,South,188,1.0,2.0,68,0.00,,---,0.00,VWS V14.01,2013-07-22 16:45:00,
2013-07-22 12:50:00,82.3,71.1,29.98,South,190,0.0,4.0,69,0.00,,---,0.00,VWS V14.01,2013-07-22 16:50:00,
2013-07-22 12:55:00,82.8,70.7,29.98,South,176,0.0,2.0,67,0.00,,---,0.00,VWS V14.01,2013-07-22 16:55:00,
2013-07-22 13:00:00,82.8,70.7,29.98,South,171,0.0,2.0,67,0.00,,---,0.00,VWS V14.01,2013-07-22 17:00:00,
2013-07-22 13:05:00,82.8,70.3,29.98,WSW,258,0.0,1.0,66,0.00,,---,0.00,VWS V14.01,2013-07-22 17:05:00,
2013-07-22 13:10:00,82.7,70.6,29.98,ESE,102,1.0,2.0,67,0.00,,---,0.00,VWS V14.01,2013-07-22 17:10:00,
2013-07-22 13:15:00,82.9,70.8,29.98,ENE,62,1.0,6.0,67,0.00,,---,0.00,VWS V14.01,2013-07-22 17:15:00,
2013-07-22 13:20:00,83.0,70.9,29.98,SE,136,0.0,3.0,67,0.00,,---,0.00,VWS V14.01,2013-07-22 17:20:00,
2013-07-22 13:25:00,83.2,69.8,29.97,SE,139,0.0,2.0,64,0.00,,---,0.00,VWS V14.01,2013-07-22 17:25:00,
2013-07-22 13:30:00,83.0,70.9,29.97,SE,139,1.0,5.0,67,0.00,,---,0.00,VWS V14.01,2013-07-22 17:30:00,
2013-07-22 13:35:00,83.4,72.2,29.96,East,88,1.0,2.0,69,0.00,,---,0.00,VWS V14.01,2013-07-22 17:35:00,
2013-07-22 13:40:00,83.5,70.1,29.96,SE,129,0.0,2.0,64,0.00,,---,0.00,VWS V14.01,2013-07-22 17:40:00,
2013-07-22 13:45:00,83.1,70.6,29.96,NE,40,0.0,3.0,66,0.00,,---,0.00,VWS V14.01,2013-07-22 17:45:00,
2013-07-22 13:50:00,82.8,70.3,29.96,NE,54,1.0,2.0,66,0.00,,---,0.00,VWS V14.01,2013-07-22 17:50:00,
2013-07-22 13:55:00,82.2,70.2,29.96,NW,320,3.0,4.0,67,0.00,,---,0.00,VWS V14.01,2013-07-22 17:55:00,
2013-07-22 14:00:00,82.0,70.0,29.96,SE,132,1.0,3.0,67,0.00,,---,0.00,VWS V14.01,2013-07-22 18:00:00,
2013-07-22 14:05:00,82.1,71.8,29.96,East,92,1.0,2.0,71,0.00,,---,0.00,VWS V14.01,2013-07-22 18:05:00,
2013-07-22 14:10:00,82.5,70.0,29.96,East,79,0.0,3.0,66,0.00,,---,0.00,VWS V14.01,2013-07-22 18:10:00,
2013-07-22 14:15:00,82.6,69.7,29.96,NNE,25,0.0,3.0,65,0.00,,---,0.00,VWS V14.01,2013-07-22 18:15:00,
2013-07-22 14:20:00,82.5,68.6,29.96,ENE,62,2.0,3.0,63,0.00,,---,0.00,VWS V14.01,2013-07-22 18:20:00,
2013-07-22 14:25:00,82.3,69.4,29.96,SE,141,1.0,2.0,65,0.00,,---,0.00,VWS V14.01,2013-07-22 18:25:00,
2013-07-22 14:30:00,82.2,69.3,29.96,North,354,0.0,4.0,65,0.00,,---,0.00,VWS V14.01,2013-07-22 18:30:00,
2013-07-22 14:35:00,82.3,69.4,29.96,ESE,117,0.0,2.0,65,0.00,,---,0.00,VWS V14.01,2013-07-22 18:35:00,
2013-07-22 14:40:00,82.1,68.7,29.96,NNE,25,1.0,2.0,64,0.00,,---,0.00,VWS V14.01,2013-07-22 18:40:00,
2013-07-22 14:45:00,82.0,69.5,29.96,ESE,123,0.0,4.0,66,0.00,,---,0.00,VWS V14.01,2013-07-22 18:45:00,
2013-07-22 14:50:00,81.9,68.5,29.96,ESE,120,0.0,2.0,64,0.00,,---,0.00,VWS V14.01,2013-07-22 18:50:00,
2013-07-22 14:55:00,81.7,68.3,29.96,East,101,1.0,4.0,64,0.00,,---,0.00,VWS V14.01,2013-07-22 18:55:00,
2013-07-22 15:00:00,81.5,67.2,29.96,SE,133,0.0,5.0,62,0.00,,---,0.00,VWS V14.01,2013-07-22 19:00:00,
2013-07-22 15:05:00,81.4,67.1,29.96,SE,130,1.0,2.0,62,0.00,,---,0.00,VWS V14.01,2013-07-22 19:05:00,
2013-07-22 15:10:00,81.1,66.9,29.96,ESE,109,0.0,5.0,62,0.00,,---,0.00,VWS V14.01,2013-07-22 19:10:00,
2013-07-22 15:15:00,80.8,66.6,29.95,SE,131,0.0,2.0,62,0.00,,---,0.00,VWS V14.01,2013-07-22 19:15:00,
2013-07-22 15:20:00,80.7,67.8,29.95,South,179,0.0,1.0,65,0.00,,---,0.00,VWS V14.01,2013-07-22 19:20:00,
2013-07-22 15:25:00,80.8,67.0,29.95,East,91,2.0,4.0,63,0.00,,---,0.00,VWS V14.01,2013-07-22 19:25:00,
2013-07-22 15:30:00,80.7,67.4,29.95,SSE,163,0.0,4.0,64,0.00,,---,0.00,VWS V14.01,2013-07-22 19:30:00,
2013-07-22 15:35:00,80.7,66.9,29.95,SE,127,1.0,3.0,63,0.00,,---,0.00,VWS V14.01,2013-07-22 19:35:00,
2013-07-22 15:40:00,80.7,66.9,29.95,NNW,329,0.0,3.0,63,0.00,,---,0.00,VWS V14.01,2013-07-22 19:40:00,
2013-07-22 15:45:00,80.2,67.4,29.95,ESE,123,0.0,3.0,65,0.00,,---,0.00,VWS V14.01,2013-07-22 19:45:00,
2013-07-22 15:50:00,79.9,68.4,29.95,ESE,119,0.0,3.0,68,0.00,,---,0.00,VWS V14.01,2013-07-22 19:50:00,
2013-07-22 15:55:00,79.6,67.2,29.95,South,172,0.0,3.0,66,0.00,,---,0.00,VWS V14.01,2013-07-22 19:55:00,
2013-07-22 16:00:00,79.4,67.9,29.95,NE,44,0.0,3.0,68,0.00,,---,0.00,VWS V14.01,2013-07-22 20:00:00,
2013-07-22 16:05:00,79.2,67.7,29.95,WNW,298,0.0,2.0,68,0.00,,---,0.00,VWS V14.01,2013-07-22 20:05:00,
2013-07-22 16:10:00,79.0,67.1,29.95,West,260,0.0,2.0,67,0.00,,---,0.00,VWS V14.01,2013-07-22 20:10:00,
2013-07-22 16:15:00,79.0,67.6,29.94,SE,145,0.0,1.0,68,0.00,,---,0.00,VWS V14.01,2013-07-22 20:15:00,
2013-07-22 16:20:00,79.1,67.6,29.94,SE,145,1.0,1.0,68,0.00,,---,0.00,VWS V14.01,2013-07-22 20:20:00,
2013-07-22 16:25:00,79.3,68.7,29.94,North,3,0.0,1.0,70,0.00,,---,0.00,VWS V14.01,2013-07-22 20:25:00,
2013-07-22 16:30:00,79.5,68.0,29.94,NNE,22,0.0,2.0,68,0.00,,---,0.00,VWS V14.01,2013-07-22 20:30:00,
2013-07-22 16:35:00,79.6,68.5,29.94,North,354,1.0,2.0,69,0.00,,---,0.00,VWS V14.01,2013-07-22 20:35:00,
2013-07-22 16:40:00,79.2,68.2,29.94,North,352,1.0,3.0,69,0.00,,---,0.00,VWS V14.01,2013-07-22 20:40:00,
2013-07-22 16:45:00,78.3,67.7,29.94,SE,142,0.0,2.0,70,0.00,,---,0.00,VWS V14.01,2013-07-22 20:45:00,
2013-07-22 16:50:00,77.9,67.8,29.94,SE,128,0.0,1.0,71,0.00,,---,0.00,VWS V14.01,2013-07-22 20:50:00,
2013-07-22 16:55:00,77.5,67.8,29.94,ENE,73,0.0,2.0,72,0.00,,---,0.00,VWS V14.01,2013-07-22 20:55:00,
2013-07-22 17:00:00,77.3,67.6,29.94,North,4,1.0,2.0,72,0.00,,---,0.00,VWS V14.01,2013-07-22 21:00:00,
2013-07-22 17:05:00,77.2,67.9,29.94,East,100,0.0,3.0,73,0.00,,---,0.00,VWS V14.01,2013-07-22 21:05:00,
2013-07-22 17:10:00,77.1,67.8,29.94,NE,40,0.0,2.0,73,0.00,,---,0.00,VWS V14.01,2013-07-22 21:10:00,
2013-07-22 17:15:00,76.8,67.9,29.93,NE,40,0.0,1.0,74,0.00,,---,0.00,VWS V14.01,2013-07-22 21:15:00,
2013-07-22 17:20:00,76.5,68.0,29.94,NNE,19,0.0,4.0,75,0.00,,---,0.00,VWS V14.01,2013-07-22 21:20:00,
2013-07-22 17:25:00,76.3,67.4,29.93,SW,229,0.0,2.0,74,0.00,,---,0.00,VWS V14.01,2013-07-22 21:25:00,
2013-07-22 17:30:00,76.0,67.5,29.94,East,84,1.0,3.0,75,0.00,,---,0.00,VWS V14.01,2013-07-22 21:30:00,
2013-07-22 17:35:00,75.8,67.7,29.94,East,82,0.0,1.0,76,0.00,,---,0.00,VWS V14.01,2013-07-22 21:35:00,
2013-07-22 17:40:00,75.8,67.7,29.94,East,101,0.0,2.0,76,0.00,,---,0.00,VWS V14.01,2013-07-22 21:40:00,
2013-07-22 17:45:00,75.5,67.8,29.94,SSW,192,0.0,3.0,77,0.00,,---,0.00,VWS V14.01,2013-07-22 21:45:00,
2013-07-22 17:50:00,75.2,67.5,29.94,SW,233,2.0,2.0,77,0.00,,---,0.00,VWS V14.01,2013-07-22 21:50:00,
2013-07-22 17:55:00,74.9,67.6,29.93,SSW,208,0.0,2.0,78,0.00,,---,0.00,VWS V14.01,2013-07-22 21:55:00,
2013-07-22 18:00:00,74.7,67.4,29.93,NNE,25,0.0,2.0,78,0.00,,---,0.00,VWS V14.01,2013-07-22 22:00:00,
2013-07-22 18:05:00,74.6,67.3,29.93,NNW,329,0.0,6.0,78,0.00,,---,0.00,VWS V14.01,2013-07-22 22:05:00,
2013-07-22 18:10:00,74.4,67.5,29.92,WSW,244,0.0,2.0,79,0.00,,---,0.00,VWS V14.01,2013-07-22 22:10:00,
2013-07-22 18:15:00,74.4,67.5,29.93,SSW,198,0.0,2.0,79,0.00,,---,0.00,VWS V14.01,2013-07-22 22:15:00,
2013-07-22 18:20:00,74.3,67.4,29.93,West,261,0.0,3.0,79,0.00,,---,0.00,VWS V14.01,2013-07-22 22:20:00,
2013-07-22 18:25:00,74.1,67.5,29.93,WNW,283,0.0,2.0,80,0.00,,---,0.00,VWS V14.01,2013-07-22 22:25:00,
2013-07-22 18:30:00,73.7,67.2,29.93,North,350,1.0,2.0,80,0.00,,---,0.00,VWS V14.01,2013-07-22 22:30:00,
2013-07-22 18:35:00,73.5,67.3,29.93,South,186,0.0,4.0,81,0.00,,---,0.00,VWS V14.01,2013-07-22 22:35:00,
2013-07-22 18:40:00,73.4,67.2,29.93,WSW,246,0.0,3.0,81,0.00,,---,0.00,VWS V14.01,2013-07-22 22:40:00,
2013-07-22 18:45:00,73.2,67.4,29.93,ESE,123,0.0,3.0,82,0.00,,---,0.00,VWS V14.01,2013-07-22 22:45:00,
2013-07-22 18:50:00,73.1,67.3,29.92,SE,131,0.0,2.0,82,0.00,,---,0.00,VWS V14.01,2013-07-22 22:50:00,
2013-07-22 18:55:00,72.8,67.3,29.93,SSW,202,0.0,5.0,83,0.00,,---,0.00,VWS V14.01,2013-07-22 22:55:00,
2013-07-22 19:00:00,72.6,67.2,29.92,SSE,156,0.0,1.0,83,0.00,,---,0.00,VWS V14.01,2013-07-22 23:00:00,
2013-07-22 19:05:00,72.4,67.3,29.93,SSE,165,0.0,3.0,84,0.00,,---,0.00,VWS V14.01,2013-07-22 23:05:00,
2013-07-22 19:10:00,72.2,67.1,29.93,ENE,60,0.0,2.0,84,0.00,,---,0.00,VWS V14.01,2013-07-22 23:10:00,
2013-07-22 19:15:00,72.0,66.9,29.93,East,83,0.0,3.0,84,0.00,,---,0.00,VWS V14.01,2013-07-22 23:15:00,
2013-07-22 19:20:00,71.8,67.1,29.93,East,98,0.0,3.0,85,0.00,,---,0.00,VWS V14.01,2013-07-22 23:20:00,
2013-07-22 19:25:00,71.6,66.9,29.93,East,96,0.0,1.0,85,0.00,,---,0.00,VWS V14.01,2013-07-22 23:25:00,
2013-07-22 19:30:00,71.5,66.8,29.93,East,96,0.0,1.0,85,0.00,,---,0.00,VWS V14.01,2013-07-22 23:30:00,
2013-07-22 19:35:00,71.4,66.7,29.92,East,98,0.0,1.0,85,0.00,,---,0.00,VWS V14.01,2013-07-22 23:35:00,
2013-07-22 19:40:00,71.3,66.9,29.93,NNW,329,0.0,1.0,86,0.00,,---,0.00,VWS V14.01,2013-07-22 23:40:00,
2013-07-22 19:45:00,71.2,66.8,29.93,NW,323,0.0,1.0,86,0.00,,---,0.00,VWS V14.01,2013-07-22 23:45:00,
2013-07-22 19:50:00,71.1,67.0,29.92,NW,323,0.0,1.0,87,0.00,,---,0.00,VWS V14.01,2013-07-22 23:50:00,
2013-07-22 19:55:00,71.0,66.9,29.92,SE,131,0.0,3.0,87,0.00,,---,0.00,VWS V14.01,2013-07-22 23:55:00,
2013-07-22 20:00:00,70.9,66.8,29.92,SE,131,0.0,1.0,87,0.00,,---,0.00,VWS V14.01,2013-07-23 00:00:00,
2013-07-22 20:05:00,70.8,66.7,29.92,East,90,0.0,2.0,87,0.00,,---,0.00,VWS V14.01,2013-07-23 00:05:00,
2013-07-22 20:10:00,70.7,66.7,29.92,North,358,0.0,2.0,87,0.00,,---,0.00,VWS V14.01,2013-07-23 00:10:00,
2013-07-22 20:15:00,70.6,66.6,29.92,South,176,0.0,2.0,87,0.00,,---,0.00,VWS V14.01,2013-07-23 00:15:00,
2013-07-22 20:20:00,70.5,66.4,29.92,SSE,158,0.0,1.0,87,0.00,,---,0.00,VWS V14.01,2013-07-23 00:20:00,
2013-07-22 20:25:00,70.5,66.8,29.92,SSE,154,1.0,2.0,88,0.00,,---,0.00,VWS V14.01,2013-07-23 00:25:00,
2013-07-22 20:30:00,70.4,66.7,29.92,North,356,0.0,3.0,88,0.00,,---,0.00,VWS V14.01,2013-07-23 00:30:00,
2013-07-22 20:35:00,70.3,66.6,29.92,NNE,15,1.0,2.0,88,0.00,,---,0.00,VWS V14.01,2013-07-23 00:35:00,
2013-07-22 20:40:00,70.2,66.8,29.92,NNE,15,0.0,1.0,89,0.00,,---,0.00,VWS V14.01,2013-07-23 00:40:00,
2013-07-22 20:45:00,70.2,66.8,29.92,NNE,15,0.0,0.0,89,0.00,,---,0.00,VWS V14.01,2013-07-23 00:45:00,
2013-07-22 20:50:00,70.2,66.8,29.92,NNE,15,0.0,0.0,89,0.00,,---,0.00,VWS V14.01,2013-07-23 00:50:00,
2013-07-22 20:55:00,70.2,66.8,29.92,North,11,0.0,3.0,89,0.00,,---,0.00,VWS V14.01,2013-07-23 00:55:00,
2013-07-22 21:00:00,70.1,66.7,29.92,NNW,333,0.0,3.0,89,0.00,,---,0.00,VWS V14.01,2013-07-23 01:00:00,
2013-07-22 21:05:00,70.1,66.7,29.92,NNW,333,0.0,0.0,89,0.00,,---,0.00,VWS V14.01,2013-07-23 01:05:00,
2013-07-22 21:10:00,70.2,66.8,29.92,NNW,339,1.0,1.0,89,0.00,,---,0.00,VWS V14.01,2013-07-23 01:10:00,
2013-07-22 21:15:00,70.1,66.7,29.92,East,79,0.0,3.0,89,0.00,,---,0.00,VWS V14.01,2013-07-23 01:15:00,
2013-07-22 21:20:00,70.2,67.1,29.92,SSW,204,1.0,1.0,90,0.00,,---,0.00,VWS V14.01,2013-07-23 01:20:00,
2013-07-22 21:25:00,70.2,67.1,29.92,East,81,0.0,3.0,90,0.00,,---,0.00,VWS V14.01,2013-07-23 01:25:00,
2013-07-22 21:30:00,70.2,67.1,29.92,East,81,0.0,1.0,90,0.00,,---,0.00,VWS V14.01,2013-07-23 01:30:00,
2013-07-22 21:35:00,70.2,67.1,29.92,East,88,0.0,1.0,90,0.00,,---,0.00,VWS V14.01,2013-07-23 01:35:00,
2013-07-22 21:40:00,70.2,67.1,29.92,East,98,0.0,2.0,90,0.00,,---,0.00,VWS V14.01,2013-07-23 01:40:00,
2013-07-22 21:45:00,70.2,67.1,29.92,East,98,0.0,0.0,90,0.00,,---,0.00,VWS V14.01,2013-07-23 01:45:00,
2013-07-22 21:50:00,70.2,67.1,29.92,East,98,0.0,1.0,90,0.00,,---,0.00,VWS V14.01,2013-07-23 01:50:00,
2013-07-22 21:55:00,70.1,67.0,29.92,East,98,0.0,0.0,90,0.00,,---,0.00,VWS V14.01,2013-07-23 01:55:00,
2013-07-22 22:00:00,70.1,67.0,29.92,East,98,0.0,0.0,90,0.00,,---,0.00,VWS V14.01,2013-07-23 02:00:00,
2013-07-22 22:05:00,70.0,66.9,29.92,South,169,0.0,3.0,90,0.00,,---,0.00,VWS V14.01,2013-07-23 02:05:00,
2013-07-22 22:10:00,69.9,66.8,29.91,SSE,148,0.0,3.0,90,0.00,,---,0.00,VWS V14.01,2013-07-23 02:10:00,
2013-07-22 22:15:00,69.9,66.8,29.91,SSE,148,0.0,1.0,90,0.00,,---,0.00,VWS V14.01,2013-07-23 02:15:00,
2013-07-22 22:20:00,69.8,66.7,29.91,SE,137,0.0,1.0,90,0.00,,---,0.00,VWS V14.01,2013-07-23 02:20:00,
2013-07-22 22:25:00,69.8,66.7,29.91,SE,137,0.0,1.0,90,0.00,,---,0.00,VWS V14.01,2013-07-23 02:25:00,
2013-07-22 22:30:00,69.7,66.6,29.91,SE,137,0.0,1.0,90,0.00,,---,0.00,VWS V14.01,2013-07-23 02:30:00,
2013-07-22 22:35:00,69.8,67.1,29.91,SE,137,0.0,1.0,91,0.00,,---,0.00,VWS V14.01,2013-07-23 02:35:00,
2013-07-22 22:40:00,69.8,67.1,29.91,SE,137,0.0,0.0,91,0.00,,---,0.00,VWS V14.01,2013-07-23 02:40:00,
2013-07-22 22:45:00,69.8,67.1,29.91,SE,137,0.0,0.0,91,0.00,,---,0.00,VWS V14.01,2013-07-23 02:45:00,
2013-07-22 22:50:00,69.9,67.2,29.91,ENE,63,0.0,1.0,91,0.00,,---,0.00,VWS V14.01,2013-07-23 02:50:00,
2013-07-22 22:55:00,69.9,67.2,29.91,SSE,149,0.0,2.0,91,0.00,,---,0.00,VWS V14.01,2013-07-23 02:55:00,
2013-07-22 23:00:00,69.8,67.1,29.90,SSE,149,0.0,1.0,91,0.00,,---,0.00,VWS V14.01,2013-07-23 03:00:00,
2013-07-22 23:05:00,69.8,67.1,29.90,SSE,149,0.0,0.0,91,0.00,,---,0.00,VWS V14.01,2013-07-23 03:05:00,
2013-07-22 23:10:00,69.8,67.1,29.90,SSE,149,0.0,1.0,91,0.00,,---,0.00,VWS V14.01,2013-07-23 03:10:00,
2013-07-22 23:15:00,69.8,67.1,29.90,SSE,149,0.0,0.0,91,0.00,,---,0.00,VWS V14.01,2013-07-23 03:15:00,
2013-07-22 23:20:00,69.7,67.0,29.90,SSE,149,0.0,0.0,91,0.00,,---,0.00,VWS V14.01,2013-07-23 03:20:00,
2013-07-22 23:25:00,69.7,67.0,29.90,SSE,149,0.0,1.0,91,0.00,,---,0.00,VWS V14.01,2013-07-23 03:25:00,
2013-07-22 23:30:00,69.6,66.9,29.90,SSE,149,0.0,0.0,91,0.00,,---,0.00,VWS V14.01,2013-07-23 03:30:00,
2013-07-22 23:35:00,69.6,66.9,29.89,SSE,149,0.0,0.0,91,0.00,,---,0.00,VWS V14.01,2013-07-23 03:35:00,
2013-07-22 23:40:00,69.6,66.9,29.89,SSE,149,0.0,0.0,91,0.00,,---,0.00,VWS V14.01,2013-07-23 03:40:00,
2013-07-22 23:45:00,69.6,66.9,29.89,NE,51,0.0,1.0,91,0.00,,---,0.00,VWS V14.01,2013-07-23 03:45:00,
2013-07-22 23:50:00,69.5,66.8,29.89,NE,51,0.0,1.0,91,0.00,,---,0.00,VWS V14.01,2013-07-23 03:50:00,
2013-07-22 23:55:00,69.5,66.8,29.89,NE,51,0.0,0.0,91,0.00,,---,0.00,VWS V14.01,2013-07-23 03:55:00,